createdAt,value
2022-09-28T00:00:33.384Z,8.61
2022-09-28T00:02:59.778Z,8.67
2022-09-28T00:05:26.055Z,8.68
2022-09-28T00:07:52.253Z,8.65
2022-09-28T00:10:18.407Z,8.64
2022-09-28T00:12:44.569Z,8.57
2022-09-28T00:15:10.732Z,8.60
2022-09-28T00:17:37.019Z,8.68
2022-09-28T00:20:03.156Z,8.72
2022-09-28T00:22:29.306Z,8.74
2022-09-28T00:24:55.525Z,8.67
2022-09-28T00:27:21.689Z,8.61
2022-09-28T00:29:47.824Z,8.60
2022-09-28T00:32:14.019Z,8.62
2022-09-28T00:34:40.109Z,8.68
2022-09-28T00:37:06.202Z,8.70
2022-09-28T00:39:32.292Z,8.57
2022-09-28T00:41:58.399Z,8.61
2022-09-28T00:44:24.481Z,8.59
2022-09-28T00:46:50.607Z,8.65
2022-09-28T00:49:16.747Z,8.56
2022-09-28T00:51:42.860Z,8.62
2022-09-28T00:54:09.323Z,8.54
2022-09-28T00:56:35.444Z,8.50
2022-09-28T00:59:01.541Z,8.47
2022-09-28T01:01:27.726Z,8.50
2022-09-28T01:03:53.853Z,8.49
2022-09-28T01:06:19.934Z,8.60
2022-09-28T01:08:46.027Z,8.56
2022-09-28T01:11:12.109Z,8.58
2022-09-28T01:13:38.203Z,8.50
2022-09-28T01:16:04.351Z,8.47
2022-09-28T01:18:30.455Z,8.43
2022-09-28T01:20:56.572Z,8.41
2022-09-28T01:23:22.685Z,8.38
2022-09-28T01:25:48.772Z,8.39
2022-09-28T01:28:14.867Z,8.40
2022-09-28T01:30:40.972Z,8.31
2022-09-28T01:33:07.090Z,8.56
2022-09-28T01:35:33.193Z,8.69
2022-09-28T01:37:59.322Z,8.67
2022-09-28T01:40:25.498Z,8.64
2022-09-28T01:42:51.637Z,8.63
2022-09-28T01:45:18.097Z,8.60
2022-09-28T01:47:44.176Z,8.50
2022-09-28T01:50:10.258Z,8.54
2022-09-28T01:52:36.380Z,8.61
2022-09-28T01:55:02.470Z,8.31
2022-09-28T01:57:28.558Z,8.35
2022-09-28T01:59:54.665Z,8.46
2022-09-28T02:02:20.865Z,8.41
2022-09-28T02:04:46.987Z,8.44
2022-09-28T02:07:13.103Z,8.51
2022-09-28T02:09:39.218Z,8.55
2022-09-28T02:12:05.300Z,8.60
2022-09-28T02:14:31.401Z,8.61
2022-09-28T02:16:57.498Z,8.57
2022-09-28T02:19:23.589Z,8.58
2022-09-28T02:21:49.693Z,8.62
2022-09-28T02:24:20.651Z,8.44
2022-09-28T02:26:47.588Z,8.29
2022-09-28T02:29:14.237Z,8.31
2022-09-28T02:31:40.445Z,8.20
2022-09-28T02:34:06.579Z,8.17
2022-09-28T02:36:32.693Z,8.17
2022-09-28T02:38:58.782Z,8.17
2022-09-28T02:41:24.864Z,8.22
2022-09-28T02:43:50.969Z,8.24
2022-09-28T02:46:17.097Z,8.25
2022-09-28T02:48:44.748Z,8.27
2022-09-28T02:51:13.340Z,8.28
2022-09-28T02:53:39.419Z,8.32
2022-09-28T02:56:05.517Z,8.26
2022-09-28T02:58:31.624Z,8.27
2022-09-28T03:00:57.754Z,8.25
2022-09-28T03:03:23.888Z,8.25
2022-09-28T03:05:49.998Z,8.32
2022-09-28T03:08:16.163Z,8.23
2022-09-28T03:10:42.267Z,8.25
2022-09-28T03:13:08.374Z,8.29
2022-09-28T03:15:34.453Z,8.28
2022-09-28T03:18:00.551Z,8.20
2022-09-28T03:20:26.672Z,8.24
2022-09-28T03:23:19.644Z,8.22
2022-09-28T03:25:38.835Z,8.25
2022-09-28T03:28:04.930Z,8.26
2022-09-28T03:30:31.036Z,8.25
2022-09-28T03:32:57.233Z,8.31
2022-09-28T03:35:23.316Z,8.23
2022-09-28T03:37:49.406Z,8.23
2022-09-28T03:40:15.587Z,8.24
2022-09-28T03:42:41.729Z,8.47
2022-09-28T03:45:07.816Z,8.39
2022-09-28T03:47:33.932Z,8.20
2022-09-28T03:50:00.035Z,8.19
2022-09-28T03:52:26.125Z,8.22
2022-09-28T03:54:52.519Z,8.17
2022-09-28T03:57:18.597Z,8.11
2022-09-28T03:59:44.673Z,8.09
2022-09-28T04:02:10.883Z,8.14
2022-09-28T04:04:37.006Z,8.13
2022-09-28T04:07:03.091Z,8.09
2022-09-28T04:09:29.187Z,8.17
2022-09-28T04:12:03.744Z,8.04
2022-09-28T04:14:30.530Z,8.08
2022-09-28T04:16:56.617Z,8.06
2022-09-28T04:19:22.708Z,8.07
2022-09-28T04:21:48.800Z,8.03
2022-09-28T04:24:14.897Z,7.98
2022-09-28T04:26:41.001Z,8.02
2022-09-28T04:29:07.171Z,7.98
2022-09-28T04:31:33.382Z,7.90
2022-09-28T04:36:43.446Z,7.93
2022-09-28T04:39:09.592Z,7.91
2022-09-28T04:41:35.701Z,7.89
2022-09-28T04:44:01.802Z,7.94
2022-09-28T04:46:27.883Z,7.83
2022-09-28T04:48:53.970Z,7.76
2022-09-28T04:51:20.109Z,7.78
2022-09-28T04:53:46.189Z,7.77
2022-09-28T04:56:12.285Z,7.77
2022-09-28T04:58:38.385Z,7.73
2022-09-28T05:01:04.552Z,7.69
2022-09-28T05:03:30.680Z,7.66
2022-09-28T05:05:56.777Z,7.89
2022-09-28T05:08:22.871Z,7.95
2022-09-28T05:10:49.250Z,7.95
2022-09-28T05:13:15.362Z,8.00
2022-09-28T05:15:41.440Z,7.96
2022-09-28T05:18:07.564Z,8.05
2022-09-28T05:20:33.686Z,8.08
2022-09-28T05:22:59.778Z,8.14
2022-09-28T05:25:25.864Z,8.06
2022-09-28T05:27:51.961Z,8.13
2022-09-28T05:30:18.052Z,8.10
2022-09-28T05:32:44.153Z,8.08
2022-09-28T05:35:10.279Z,8.02
2022-09-28T05:37:36.361Z,8.09
2022-09-28T05:40:02.450Z,7.99
2022-09-28T05:42:28.553Z,8.11
2022-09-28T05:44:54.666Z,8.14
2022-09-28T05:47:20.753Z,7.78
2022-09-28T05:49:46.861Z,7.77
2022-09-28T05:52:12.953Z,7.74
2022-09-28T05:54:39.098Z,7.77
2022-09-28T05:57:05.198Z,7.80
2022-09-28T05:59:31.278Z,7.85
2022-09-28T06:01:57.488Z,7.83
2022-09-28T06:04:23.618Z,7.86
2022-09-28T06:06:49.723Z,7.87
2022-09-28T06:09:15.826Z,7.85
2022-09-28T06:11:41.938Z,7.87
2022-09-28T06:14:08.034Z,7.95
2022-09-28T06:16:34.205Z,7.79
2022-09-28T06:19:00.344Z,7.87
2022-09-28T06:21:26.434Z,7.89
2022-09-28T06:23:52.530Z,7.97
2022-09-28T06:26:18.628Z,8.00
2022-09-28T06:28:44.726Z,7.97
2022-09-28T06:31:10.970Z,7.90
2022-09-28T06:33:37.214Z,7.93
2022-09-28T06:36:03.305Z,7.96
2022-09-28T06:38:29.398Z,8.03
2022-09-28T06:40:55.553Z,8.02
2022-09-28T06:43:21.652Z,8.00
2022-09-28T06:45:47.771Z,8.09
2022-09-28T06:48:13.943Z,8.22
2022-09-28T06:50:40.037Z,8.23
2022-09-28T06:53:06.149Z,8.23
2022-09-28T06:55:32.257Z,8.14
2022-09-28T06:57:58.334Z,8.10
2022-09-28T07:00:24.408Z,8.10
2022-09-28T07:02:50.512Z,8.13
2022-09-28T07:05:16.593Z,8.08
2022-09-28T07:07:42.726Z,8.17
2022-09-28T07:10:08.829Z,8.17
2022-09-28T07:12:34.926Z,8.17
2022-09-28T07:15:01.039Z,8.13
2022-09-28T07:17:27.174Z,8.20
2022-09-28T07:19:53.326Z,8.37
2022-09-28T07:22:22.144Z,8.36
2022-09-28T07:24:52.873Z,8.37
2022-09-28T07:27:18.968Z,8.46
2022-09-28T07:29:45.056Z,8.33
2022-09-28T07:32:11.168Z,8.40
2022-09-28T07:34:37.254Z,8.46
2022-09-28T07:37:03.387Z,8.52
2022-09-28T07:39:30.225Z,8.56
2022-09-28T07:41:59.671Z,8.44
2022-09-28T07:44:28.550Z,8.42
2022-09-28T07:46:55.537Z,8.48
2022-09-28T07:49:21.640Z,8.41
2022-09-28T07:51:47.737Z,8.36
2022-09-28T07:54:13.828Z,8.35
2022-09-28T07:56:39.904Z,8.52
2022-09-28T07:59:06.011Z,8.53
2022-09-28T08:01:32.158Z,8.50
2022-09-28T08:03:58.325Z,8.55
2022-09-28T08:06:24.432Z,8.51
2022-09-28T08:08:50.550Z,8.50
2022-09-28T08:11:16.659Z,8.38
2022-09-28T08:13:42.745Z,8.45
2022-09-28T08:16:08.836Z,8.41
2022-09-28T08:18:34.917Z,8.48
2022-09-28T08:21:01.007Z,8.58
2022-09-28T08:23:27.108Z,8.68
2022-09-28T08:25:53.198Z,8.49
2022-09-28T08:28:19.296Z,8.63
2022-09-28T08:30:45.446Z,8.56
2022-09-28T08:33:11.589Z,8.58
2022-09-28T08:35:37.693Z,8.68
2022-09-28T08:38:03.802Z,8.62
2022-09-28T08:40:29.933Z,8.62
2022-09-28T08:42:56.038Z,8.72
2022-09-28T08:45:23.202Z,8.79
2022-09-28T08:47:49.485Z,8.82
2022-09-28T08:50:15.564Z,8.90
2022-09-28T08:52:42.048Z,8.72
2022-09-28T08:55:08.132Z,8.71
2022-09-28T08:57:34.213Z,8.59
2022-09-28T09:00:00.313Z,8.87
2022-09-28T09:02:26.461Z,8.71
2022-09-28T09:04:52.569Z,8.88
2022-09-28T09:07:18.677Z,8.95
2022-09-28T09:09:44.759Z,8.95
2022-09-28T09:12:10.851Z,9.00
2022-09-28T09:14:36.949Z,9.00
2022-09-28T09:17:03.089Z,8.89
2022-09-28T09:19:29.210Z,8.90
2022-09-28T09:21:55.314Z,8.89
2022-09-28T09:24:21.399Z,8.95
2022-09-28T09:26:47.480Z,9.01
2022-09-28T09:29:13.589Z,9.01
2022-09-28T09:31:39.667Z,9.10
2022-09-28T09:34:05.761Z,8.92
2022-09-28T09:36:31.877Z,8.99
2022-09-28T09:38:57.970Z,8.98
2022-09-28T09:41:24.050Z,9.01
2022-09-28T09:43:50.156Z,9.05
2022-09-28T09:46:16.350Z,9.02
2022-09-28T09:48:42.585Z,9.03
2022-09-28T09:51:08.720Z,9.21
2022-09-28T09:53:37.687Z,9.32
2022-09-28T09:56:04.744Z,9.24
2022-09-28T09:58:30.899Z,9.22
2022-09-28T10:00:57.022Z,9.09
2022-09-28T10:03:23.267Z,9.22
2022-09-28T10:05:49.400Z,9.28
2022-09-28T10:08:15.484Z,9.16
2022-09-28T10:10:41.567Z,9.36
2022-09-28T10:13:07.677Z,9.14
2022-09-28T10:15:33.770Z,9.15
2022-09-28T10:17:59.851Z,9.32
2022-09-28T10:20:26.006Z,9.49
2022-09-28T10:22:52.099Z,9.23
2022-09-28T10:25:18.186Z,9.08
2022-09-28T10:27:44.288Z,9.55
2022-09-28T10:30:10.367Z,9.68
2022-09-28T10:32:36.453Z,9.85
2022-09-28T10:35:02.558Z,9.85
2022-09-28T10:37:28.640Z,9.63
2022-09-28T10:39:54.733Z,9.59
2022-09-28T10:42:20.869Z,9.48
2022-09-28T10:44:46.949Z,9.38
2022-09-28T10:47:13.045Z,9.07
2022-09-28T10:49:43.101Z,9.44
2022-09-28T10:52:12.086Z,9.47
2022-09-28T10:54:38.174Z,9.50
2022-09-28T10:57:04.298Z,9.49
2022-09-28T10:59:30.379Z,9.68
2022-09-28T11:01:56.468Z,9.38
2022-09-28T11:04:22.579Z,9.53
2022-09-28T11:06:48.700Z,9.92
2022-09-28T11:09:14.888Z,10.09
2022-09-28T11:11:41.056Z,10.14
2022-09-28T11:14:07.150Z,9.97
2022-09-28T11:16:33.284Z,10.12
2022-09-28T11:18:59.419Z,10.10
2022-09-28T11:21:25.524Z,10.22
2022-09-28T11:23:51.622Z,10.36
2022-09-28T11:26:18.914Z,10.39
2022-09-28T11:28:45.202Z,10.43
2022-09-28T11:31:11.389Z,10.49
2022-09-28T11:33:37.540Z,10.36
2022-09-28T11:36:03.628Z,10.41
2022-09-28T11:38:29.708Z,10.35
2022-09-28T11:40:55.889Z,10.44
2022-09-28T11:43:22.011Z,10.55
2022-09-28T11:45:48.154Z,10.59
2022-09-28T11:48:14.294Z,10.36
2022-09-28T11:50:40.386Z,10.14
2022-09-28T11:53:06.465Z,10.13
2022-09-28T11:55:32.595Z,10.52
2022-09-28T11:57:58.676Z,10.75
2022-09-28T12:00:24.765Z,10.85
2022-09-28T12:02:51.648Z,10.94
2022-09-28T12:05:20.892Z,10.91
2022-09-28T12:07:47.316Z,11.09
2022-09-28T12:10:13.434Z,11.02
2022-09-28T12:12:39.526Z,11.08
2022-09-28T12:15:05.616Z,11.22
2022-09-28T12:17:31.785Z,11.28
2022-09-28T12:19:57.903Z,11.41
2022-09-28T12:22:23.999Z,11.32
2022-09-28T12:24:50.105Z,11.22
2022-09-28T12:27:16.206Z,11.29
2022-09-28T12:29:42.289Z,11.36
2022-09-28T12:32:08.393Z,11.55
2022-09-28T12:34:34.483Z,11.66
2022-09-28T12:37:00.567Z,11.83
2022-09-28T12:39:40.781Z,11.81
2022-09-28T12:42:12.759Z,12.01
2022-09-28T12:44:38.880Z,11.75
2022-09-28T12:47:05.008Z,11.55
2022-09-28T12:52:17.312Z,11.67
2022-09-28T12:54:43.421Z,11.66
2022-09-28T12:57:09.505Z,11.61
2022-09-28T12:59:35.601Z,11.44
2022-09-28T13:02:01.690Z,11.50
2022-09-28T13:04:27.790Z,11.49
2022-09-28T13:06:54.393Z,11.46
2022-09-28T13:09:20.481Z,11.38
2022-09-28T13:11:46.574Z,11.15
2022-09-28T13:14:12.689Z,11.55
2022-09-28T13:16:38.771Z,11.43
2022-09-28T13:19:04.858Z,11.19
2022-09-28T13:21:30.968Z,11.53
2022-09-28T13:24:08.731Z,11.13
2022-09-28T13:26:43.128Z,11.00
2022-09-28T13:29:09.213Z,10.97
2022-09-28T13:31:37.147Z,10.86
2022-09-28T13:34:05.719Z,10.89
2022-09-28T13:36:31.822Z,10.97
2022-09-28T13:38:57.909Z,11.05
2022-09-28T13:41:24.032Z,10.97
2022-09-28T13:43:50.131Z,10.98
2022-09-28T13:46:16.315Z,11.01
2022-09-28T13:48:42.535Z,11.09
2022-09-28T13:51:08.618Z,11.06
2022-09-28T13:53:34.701Z,11.07
2022-09-28T13:56:01.655Z,11.27
2022-09-28T13:58:27.748Z,11.23
2022-09-28T14:00:53.854Z,11.23
2022-09-28T14:03:19.977Z,11.28
2022-09-28T14:05:46.086Z,11.34
2022-09-28T14:08:12.182Z,11.59
2022-09-28T14:10:38.334Z,11.74
2022-09-28T14:13:06.613Z,11.87
2022-09-28T14:15:34.748Z,12.04
2022-09-28T14:18:00.884Z,11.81
2022-09-28T14:20:26.963Z,11.80
2022-09-28T14:22:53.044Z,11.63
2022-09-28T14:25:19.159Z,11.87
2022-09-28T14:27:45.270Z,12.21
2022-09-28T14:30:11.368Z,12.09
2022-09-28T14:32:37.487Z,12.13
2022-09-28T14:35:03.593Z,12.02
2022-09-28T14:37:29.677Z,12.30
2022-09-28T14:39:55.781Z,12.46
2022-09-28T14:42:21.870Z,12.87
2022-09-28T14:44:47.953Z,12.78
2022-09-28T14:47:14.057Z,12.57
2022-09-28T14:49:40.160Z,12.39
2022-09-28T14:52:06.240Z,12.55
2022-09-28T14:54:32.349Z,12.40
2022-09-28T14:56:58.443Z,12.27
2022-09-28T14:59:24.542Z,12.21
2022-09-28T15:01:50.656Z,12.19
2022-09-28T15:04:16.975Z,12.08
2022-09-28T15:06:43.237Z,12.00
2022-09-28T15:09:09.359Z,11.97
2022-09-28T15:11:35.462Z,11.93
2022-09-28T15:14:01.612Z,12.03
2022-09-28T15:16:27.722Z,12.02
2022-09-28T15:18:53.805Z,11.97
2022-09-28T15:21:19.898Z,11.94
2022-09-28T15:23:46.019Z,11.88
2022-09-28T15:26:12.142Z,11.88
2022-09-28T15:28:38.224Z,11.91
2022-09-28T15:31:04.376Z,11.81
2022-09-28T15:33:30.505Z,11.77
2022-09-28T15:35:56.617Z,11.69
2022-09-28T15:38:22.704Z,11.69
2022-09-28T15:40:48.832Z,11.76
2022-09-28T15:43:14.979Z,11.72
2022-09-28T15:45:41.104Z,11.76
2022-09-28T15:48:07.201Z,11.69
2022-09-28T15:50:34.024Z,11.69
2022-09-28T15:53:00.137Z,11.70
2022-09-28T15:55:26.220Z,11.69
2022-09-28T15:57:52.304Z,11.64
2022-09-28T16:00:18.412Z,11.55
2022-09-28T16:02:44.557Z,11.45
2022-09-28T16:05:10.675Z,11.45
2022-09-28T16:07:36.772Z,11.46
2022-09-28T16:10:03.016Z,11.45
2022-09-28T16:12:30.275Z,11.36
2022-09-28T16:14:56.846Z,11.37
2022-09-28T16:17:22.935Z,11.35
2022-09-28T16:19:49.025Z,11.33
2022-09-28T16:22:15.117Z,11.28
2022-09-28T16:24:41.211Z,11.24
2022-09-28T16:27:08.341Z,11.23
2022-09-28T16:29:34.458Z,11.30
2022-09-28T16:32:00.560Z,11.23
2022-09-28T16:34:26.633Z,11.18
2022-09-28T16:36:53.916Z,11.12
2022-09-28T16:39:22.324Z,11.09
2022-09-28T16:41:48.420Z,11.03
2022-09-28T16:44:14.534Z,11.07
2022-09-28T16:46:40.705Z,11.03
2022-09-28T16:49:06.848Z,11.01
2022-09-28T16:51:32.953Z,11.01
2022-09-28T16:53:59.032Z,11.03
2022-09-28T16:56:25.114Z,10.99
2022-09-28T16:58:51.212Z,11.01
2022-09-28T17:01:17.334Z,10.94
2022-09-28T17:03:43.487Z,10.95
2022-09-28T17:06:09.991Z,10.74
2022-09-28T17:08:36.102Z,10.76
2022-09-28T17:11:22.836Z,10.77
2022-09-28T17:13:48.282Z,10.76
2022-09-28T17:16:14.459Z,10.71
2022-09-28T17:18:40.634Z,10.73
2022-09-28T17:21:06.842Z,10.62
2022-09-28T17:23:32.914Z,10.56
2022-09-28T17:25:59.005Z,10.53
2022-09-28T17:28:26.869Z,10.44
2022-09-28T17:30:53.025Z,10.53
2022-09-28T17:33:19.168Z,10.48
2022-09-28T17:35:45.299Z,10.39
2022-09-28T17:38:11.450Z,10.35
2022-09-28T17:40:37.599Z,10.29
2022-09-28T17:43:03.762Z,10.35
2022-09-28T17:45:29.923Z,10.22
2022-09-28T17:47:56.036Z,10.22
2022-09-28T17:50:22.141Z,10.18
2022-09-28T17:52:48.228Z,10.12
2022-09-28T17:55:14.317Z,10.09
2022-09-28T17:57:40.430Z,10.00
2022-09-28T18:00:06.527Z,9.99
2022-09-28T18:02:32.652Z,9.98
2022-09-28T18:04:59.192Z,10.00
2022-09-28T18:07:25.472Z,10.00
2022-09-28T18:09:51.552Z,10.03
2022-09-28T18:12:17.671Z,9.95
2022-09-28T18:14:43.774Z,9.97
2022-09-28T18:17:09.870Z,9.97
2022-09-28T18:19:35.982Z,10.00
2022-09-28T18:22:02.085Z,9.97
2022-09-28T18:24:28.174Z,9.93
2022-09-28T18:26:54.276Z,10.00
2022-09-28T18:29:20.366Z,9.94
2022-09-28T18:31:46.460Z,9.93
2022-09-28T18:34:12.569Z,9.90
2022-09-28T18:36:38.730Z,9.95
2022-09-28T18:39:04.829Z,9.95
2022-09-28T18:41:30.932Z,9.78
2022-09-28T18:43:57.022Z,9.81
2022-09-28T18:46:23.217Z,9.87
2022-09-28T18:48:49.391Z,9.78
2022-09-28T18:51:15.485Z,9.70
2022-09-28T18:53:41.584Z,9.66
2022-09-28T18:56:07.697Z,9.68
2022-09-28T18:58:33.778Z,9.71
2022-09-28T19:01:18.716Z,9.68
2022-09-28T19:03:45.970Z,9.66
2022-09-28T19:06:12.079Z,9.69
2022-09-28T19:08:38.373Z,9.69
2022-09-28T19:11:04.547Z,9.70
2022-09-28T19:13:30.654Z,9.75
2022-09-28T19:15:56.801Z,9.76
2022-09-28T19:18:22.934Z,9.73
2022-09-28T19:20:49.023Z,9.75
2022-09-28T19:23:15.110Z,9.67
2022-09-28T19:25:41.484Z,9.64
2022-09-28T19:28:07.603Z,9.66
2022-09-28T19:30:33.720Z,9.66
2022-09-28T19:32:59.834Z,9.73
2022-09-28T19:35:25.920Z,9.71
2022-09-28T19:37:52.009Z,9.66
2022-09-28T19:40:18.178Z,9.70
2022-09-28T19:42:44.327Z,9.66
2022-09-28T19:45:10.421Z,9.58
2022-09-28T19:47:36.532Z,9.55
2022-09-28T19:50:02.623Z,9.62
2022-09-28T19:52:28.718Z,9.60
2022-09-28T19:54:54.832Z,9.57
2022-09-28T19:57:20.926Z,9.55
2022-09-28T19:59:52.034Z,9.59
2022-09-28T20:02:18.785Z,9.55
2022-09-28T20:04:44.957Z,9.56
2022-09-28T20:07:11.054Z,9.49
2022-09-28T20:09:37.688Z,9.52
2022-09-28T20:12:03.795Z,9.54
2022-09-28T20:14:33.134Z,9.57
2022-09-28T20:17:03.982Z,9.48
2022-09-28T20:19:30.071Z,9.41
2022-09-28T20:21:56.158Z,9.32
2022-09-28T20:24:22.271Z,9.27
2022-09-28T20:26:48.393Z,9.34
2022-09-28T20:29:14.531Z,9.37
2022-09-28T20:31:40.694Z,9.38
2022-09-28T20:34:06.814Z,9.36
2022-09-28T20:36:32.899Z,9.37
2022-09-28T20:38:59.063Z,9.29
2022-09-28T20:41:25.205Z,9.30
2022-09-28T20:43:51.295Z,9.28
2022-09-28T20:46:17.644Z,9.28
2022-09-28T20:48:43.772Z,9.30
2022-09-28T20:51:09.868Z,9.22
2022-09-28T20:53:36.020Z,9.20
2022-09-28T20:56:02.156Z,9.15
2022-09-28T20:58:28.245Z,9.18
2022-09-28T21:00:54.372Z,9.20
2022-09-28T21:03:20.459Z,9.07
2022-09-28T21:05:46.545Z,9.00
2022-09-28T21:08:12.666Z,8.84
2022-09-28T21:10:38.784Z,8.79
2022-09-28T21:13:04.884Z,8.80
2022-09-28T21:15:31.606Z,8.85
2022-09-28T21:17:57.755Z,8.85
2022-09-28T21:20:23.841Z,8.85
2022-09-28T21:22:49.957Z,8.91
2022-09-28T21:25:16.035Z,8.90
2022-09-28T21:27:42.174Z,8.90
2022-09-28T21:30:08.326Z,8.93
2022-09-28T21:32:34.576Z,8.84
2022-09-28T21:35:00.860Z,8.98
2022-09-28T21:37:27.140Z,8.90
2022-09-28T21:39:53.277Z,8.85
2022-09-28T21:42:19.510Z,8.88
2022-09-28T21:44:45.695Z,8.81
2022-09-28T21:47:11.906Z,8.71
2022-09-28T21:49:37.995Z,8.68
2022-09-28T21:52:04.110Z,8.58
2022-09-28T21:54:30.198Z,8.58
2022-09-28T21:56:56.273Z,8.53
2022-09-28T21:59:22.389Z,8.45
2022-09-28T22:01:48.542Z,8.41
2022-09-28T22:04:14.754Z,8.50
2022-09-28T22:06:40.974Z,8.55
2022-09-28T22:09:07.072Z,8.47
2022-09-28T22:11:33.160Z,8.45
2022-09-28T22:13:59.454Z,8.40
2022-09-28T22:16:25.655Z,8.46
2022-09-28T22:18:51.919Z,8.48
2022-09-28T22:21:18.047Z,8.46
2022-09-28T22:23:44.226Z,8.44
2022-09-28T22:26:10.363Z,8.46
2022-09-28T22:28:36.459Z,8.35
2022-09-28T22:31:02.658Z,8.37
2022-09-28T22:33:28.791Z,8.32
2022-09-28T22:35:54.964Z,8.30
2022-09-28T22:38:21.101Z,8.35
2022-09-28T22:40:47.437Z,8.27
2022-09-28T22:43:13.678Z,8.15
2022-09-28T22:45:39.844Z,8.23
2022-09-28T22:48:06.082Z,8.05
2022-09-28T22:50:32.237Z,8.11
2022-09-28T22:52:58.375Z,8.17
2022-09-28T22:55:24.465Z,8.26
2022-09-28T22:57:50.613Z,8.29
2022-09-28T23:00:16.761Z,8.27
2022-09-28T23:02:42.894Z,8.24
2022-09-28T23:05:09.100Z,8.14
2022-09-28T23:07:35.236Z,8.15
2022-09-28T23:10:01.312Z,8.05
2022-09-28T23:12:27.964Z,8.06
2022-09-28T23:14:54.102Z,8.14
2022-09-28T23:17:20.298Z,8.11
2022-09-28T23:19:46.570Z,8.18
2022-09-28T23:22:12.847Z,8.22
2022-09-28T23:24:38.936Z,8.25
2022-09-28T23:27:05.173Z,8.18
2022-09-28T23:29:31.267Z,8.20
2022-09-28T23:32:00.486Z,8.25
2022-09-28T23:34:26.635Z,8.27
2022-09-28T23:36:52.721Z,8.37
2022-09-28T23:39:19.065Z,8.31
2022-09-28T23:41:46.258Z,8.35
2022-09-28T23:44:12.459Z,8.26
2022-09-28T23:46:38.609Z,8.29
2022-09-28T23:49:04.724Z,8.28
2022-09-28T23:51:30.813Z,8.33
2022-09-28T23:53:56.946Z,8.37
2022-09-28T23:56:23.084Z,8.34
2022-09-28T23:58:49.180Z,8.36
